Time;durP1;ratioP1;P1;durP2;ratioP2;P2;SDS_P1;SDS_P2;PMS_P1;PMS_P2;Temp;Humidity;BMP_temperature;BMP_pressure;BME280_temperature;BME280_humidity;BME280_pressure;Samples;Min_cycle;Max_cycle;Signal;HPM_P1;HPM_P2
2024/01/16 00:01:08;;;;;;;16.40;13.07;;;;;;;18.33;43.54;99911.13;5013623;28;20392;-60
2024/01/16 00:03:37;;;;;;;16.98;14.18;;;;;;;18.32;43.26;99900.56;5013724;28;20053;-60
2024/01/16 00:06:06;;;;;;;15.43;13.82;;;;;;;18.32;43.05;99905.94;5013475;28;20041;-60
2024/01/16 00:08:34;;;;;;;16.90;15.15;;;;;;;18.31;42.90;99910.44;5013992;28;20058;-60
2024/01/16 00:11:03;;;;;;;17.58;14.25;;;;;;;18.31;42.80;99917.63;5013377;28;20048;-60
2024/01/16 00:13:32;;;;;;;16.50;14.70;;;;;;;18.29;42.74;99915.94;5013553;28;20412;-60
2024/01/16 00:16:02;;;;;;;14.55;13.15;;;;;;;18.29;42.63;99913.25;5013742;28;20049;-60
2024/01/16 00:18:29;;;;;;;16.40;14.70;;;;;;;18.29;42.36;99909.75;5014029;28;20046;-64
2024/01/16 00:20:57;;;;;;;15.88;14.27;;;;;;;18.27;42.31;99909.91;5019496;28;20050;-64
2024/01/16 00:23:24;;;;;;;15.80;14.10;;;;;;;18.27;42.29;99914.38;5023892;28;20394;-60
2024/01/16 00:25:52;;;;;;;15.93;14.32;;;;;;;18.27;42.22;99925.97;5024623;28;20377;-60
2024/01/16 00:28:19;;;;;;;15.25;13.70;;;;;;;18.26;42.09;99923.44;5017684;28;20053;-60
2024/01/16 00:30:47;;;;;;;17.40;15.60;;;;;;;18.26;42.22;99920.75;5027552;28;20050;-60
2024/01/16 00:33:14;;;;;;;16.08;13.80;;;;;;;18.24;42.14;99931.63;5013329;28;20034;-60
2024/01/16 00:35:41;;;;;;;15.93;14.18;;;;;;;18.24;42.11;99934.28;5021183;28;20045;-60
2024/01/16 00:38:09;;;;;;;16.50;14.57;;;;;;;18.23;41.88;99931.75;5031246;28;20045;-63
2024/01/16 00:40:36;;;;;;;15.57;14.07;;;;;;;18.22;42.03;99938.94;5013595;28;20053;-63
2024/01/16 00:43:04;;;;;;;16.15;14.35;;;;;;;18.22;41.98;99946.13;5013258;28;20050;-63
2024/01/16 00:45:31;;;;;;;15.63;13.50;;;;;;;18.21;41.98;99947.13;5013345;28;20049;-63
2024/01/16 00:47:58;;;;;;;15.63;14.02;;;;;;;18.20;41.83;99951.66;5014203;28;20053;-63
2024/01/16 00:50:26;;;;;;;16.10;14.30;;;;;;;18.20;41.83;99958.84;5013659;28;20046;-63
2024/01/16 00:52:54;;;;;;;16.05;14.43;;;;;;;18.19;41.97;99960.69;5013346;28;20465;-63
2024/01/16 00:55:21;;;;;;;16.80;15.00;;;;;;;18.19;41.94;99967.84;5014684;28;20046;-63
2024/01/16 00:57:48;;;;;;;16.52;14.82;;;;;;;18.19;42.06;99970.53;5015083;28;20038;-60
2024/01/16 01:00:16;;;;;;;15.90;14.00;;;;;;;18.18;42.07;99972.38;5027473;28;20049;-61
2024/01/16 01:02:44;;;;;;;15.95;14.45;;;;;;;18.18;41.99;99974.22;5013686;28;20152;-60
2024/01/16 01:05:11;;;;;;;15.57;13.98;;;;;;;18.17;42.02;99983.25;5017059;28;20050;-60
2024/01/16 01:07:38;;;;;;;15.38;13.63;;;;;;;18.18;41.86;99988.44;5017902;28;20412;-63
2024/01/16 01:10:06;;;;;;;15.73;14.13;;;;;;;18.16;41.89;99981.56;5016926;28;20065;-63
2024/01/16 01:12:33;;;;;;;16.52;13.82;;;;;;;18.17;42.03;99991.28;5019173;28;20056;-63
2024/01/16 01:15:01;;;;;;;15.85;14.25;;;;;;;18.16;42.05;99987.75;5023120;28;20050;-63
2024/01/16 01:17:29;;;;;;;16.40;14.70;;;;;;;18.15;41.89;99995.91;5018402;28;20053;-60
2024/01/16 01:19:56;;;;;;;16.33;14.63;;;;;;;18.14;42.08;100005.78;5016637;28;20050;-60
2024/01/16 01:22:24;;;;;;;16.25;14.45;;;;;;;18.14;41.99;100005.78;5016681;28;20057;-60
2024/01/16 01:24:51;;;;;;;16.35;14.65;;;;;;;18.15;42.13;100012.00;5016668;28;20053;-60
2024/01/16 01:27:18;;;;;;;16.52;14.85;;;;;;;18.15;42.11;100018.22;5018183;28;20408;-62
2024/01/16 01:29:46;;;;;;;15.63;13.70;;;;;;;18.15;42.13;100017.34;5016187;28;20054;-63
2024/01/16 01:32:13;;;;;;;16.05;14.45;;;;;;;18.14;42.23;100029.91;5016772;28;20061;-63
2024/01/16 01:34:43;;;;;;;16.20;13.98;;;;;;;18.14;42.24;100035.25;5018485;28;20053;-62
2024/01/16 01:37:11;;;;;;;15.23;13.63;;;;;;;18.13;42.33;100036.25;5024736;28;20546;-62
2024/01/16 01:39:38;;;;;;;15.07;13.57;;;;;;;18.13;42.29;100046.13;5017597;28;20061;-63
2024/01/16 01:42:05;;;;;;;17.08;13.98;;;;;;;18.13;42.21;100046.97;5016527;28;20050;-63
2024/01/16 01:44:33;;;;;;;15.18;13.43;;;;;;;18.12;42.05;100064.03;5016358;28;20522;-63
2024/01/16 01:47:00;;;;;;;16.02;14.23;;;;;;;18.10;41.93;100057.97;5017567;28;20049;-63
2024/01/16 01:49:28;;;;;;;16.42;14.68;;;;;;;18.10;42.03;100063.31;5016125;28;20049;-63
2024/01/16 01:51:56;;;;;;;15.95;14.32;;;;;;;18.10;42.00;100066.00;5016045;28;20408;-63
2024/01/16 01:54:24;;;;;;;14.10;12.70;;;;;;;18.10;42.06;100071.34;5016302;28;20506;-62
2024/01/16 01:56:52;;;;;;;14.32;12.82;;;;;;;18.09;42.10;100072.34;5018473;28;20042;-61
2024/01/16 01:59:21;;;;;;;14.98;13.48;;;;;;;18.10;41.89;100074.03;5027154;28;20057;-63
2024/01/16 02:01:54;;;;;;;15.32;13.27;;;;;;;18.09;42.16;100072.34;5017110;28;20514;-63
2024/01/16 02:04:22;;;;;;;14.88;13.27;;;;;;;18.09;41.86;100084.91;5017473;28;20412;-62
2024/01/16 02:06:50;;;;;;;14.98;13.48;;;;;;;18.08;42.14;100084.06;5017425;28;20057;-61
2024/01/16 02:09:17;;;;;;;15.50;13.30;;;;;;;18.08;42.14;100086.75;5016318;28;20058;-60
2024/01/16 02:11:45;;;;;;;14.38;13.05;;;;;;;18.08;42.15;100092.09;5015928;28;20041;-60
2024/01/16 02:14:12;;;;;;;16.17;13.32;;;;;;;18.06;42.13;100088.69;5015892;28;20053;-60
2024/01/16 02:16:41;;;;;;;14.23;12.80;;;;;;;18.06;42.17;100096.75;5018071;28;20486;-60
2024/01/16 02:19:09;;;;;;;13.27;11.90;;;;;;;18.06;42.14;100094.06;5016978;28;20057;-63
2024/01/16 02:21:41;;;;;;;14.93;13.32;;;;;;;18.08;42.22;100093.94;5015538;28;20054;-63
2024/01/16 02:24:11;;;;;;;14.70;13.17;;;;;;;18.04;42.05;100091.53;5016060;28;20042;-63
2024/01/16 02:26:38;;;;;;;14.98;13.48;;;;;;;18.06;42.07;100095.91;5017165;28;20046;-63
2024/01/16 02:29:07;;;;;;;15.10;13.60;;;;;;;18.06;42.16;100095.91;5016234;28;20053;-60
2024/01/16 02:31:35;;;;;;;15.38;13.80;;;;;;;18.05;42.17;100100.41;5016296;28;20050;-60
2024/01/16 02:34:04;;;;;;;14.00;12.55;;;;;;;18.05;42.22;100103.09;5017508;28;20421;-60
2024/01/16 02:36:32;;;;;;;13.68;12.27;;;;;;;18.04;41.89;100107.59;5016785;28;20054;-60
2024/01/16 02:38:59;;;;;;;14.45;12.88;;;;;;;18.04;42.10;100104.94;5016250;28;20053;-60
2024/01/16 02:41:27;;;;;;;14.27;12.77;;;;;;;18.03;42.12;100105.06;5015997;28;20050;-60
2024/01/16 02:43:54;;;;;;;14.55;13.05;;;;;;;18.02;42.00;100114.91;5016717;28;20057;-60
2024/01/16 02:46:21;;;;;;;14.27;12.77;;;;;;;18.03;42.05;100121.16;5015431;28;20404;-60
2024/01/16 02:48:49;;;;;;;15.95;13.00;;;;;;;18.02;42.01;100120.28;5015687;28;20504;-62
2024/01/16 02:51:16;;;;;;;14.20;12.77;;;;;;;18.01;42.02;100121.28;5015609;28;20049;-62
2024/01/16 02:53:44;;;;;;;14.80;13.35;;;;;;;18.02;42.03;100122.09;5016288;28;20052;-62
2024/01/16 02:56:11;;;;;;;13.27;11.88;;;;;;;18.02;42.01;100119.44;5015993;28;20057;-62
2024/01/16 02:58:38;;;;;;;14.95;13.43;;;;;;;18.01;42.10;100110.56;5015900;28;20053;-61
2024/01/16 03:01:06;;;;;;;14.00;12.60;;;;;;;18.01;41.97;100120.44;5015650;28;20057;-62
2024/01/16 03:03:33;;;;;;;13.85;12.35;;;;;;;18.00;41.98;100119.59;5015704;28;20046;-62
2024/01/16 03:06:00;;;;;;;14.07;12.68;;;;;;;18.01;41.99;100125.78;5015708;28;20046;-60
2024/01/16 03:08:28;;;;;;;14.07;12.57;;;;;;;18.00;41.81;100122.25;5015872;28;20049;-62
2024/01/16 03:10:56;;;;;;;14.90;12.57;;;;;;;18.00;41.95;100134.81;5015203;28;20416;-62
2024/01/16 03:13:24;;;;;;;12.90;11.50;;;;;;;18.01;41.76;100131.13;5016114;28;20060;-63
2024/01/16 03:15:51;;;;;;;13.70;12.30;;;;;;;17.99;41.90;100127.78;5016758;28;20050;-64
2024/01/16 03:18:18;;;;;;;13.32;11.85;;;;;;;17.98;41.79;100132.25;5015009;28;20068;-60
2024/01/16 03:20:46;;;;;;;14.50;13.00;;;;;;;17.98;41.87;100140.28;5014935;28;20433;-59
2024/01/16 03:23:13;;;;;;;14.07;12.63;;;;;;;17.98;41.77;100144.81;5015655;28;20050;-60
2024/01/16 03:25:41;;;;;;;12.52;11.32;;;;;;;17.97;41.85;100148.47;5022511;28;20519;-59
2024/01/16 03:28:10;;;;;;;13.60;12.18;;;;;;;17.95;41.59;100143.28;5014995;28;20488;-62
2024/01/16 03:30:37;;;;;;;14.18;12.70;;;;;;;17.94;41.66;100148.75;5014743;28;20058;-63
2024/01/16 03:33:05;;;;;;;13.10;11.77;;;;;;;17.94;41.46;100151.41;5016359;28;20424;-62
2024/01/16 03:35:32;;;;;;;12.80;11.60;;;;;;;17.93;41.60;100155.09;5014586;28;20050;-62
2024/01/16 03:38:01;;;;;;;13.38;11.57;;;;;;;17.93;41.67;100160.44;5015470;28;20053;-62
2024/01/16 03:40:33;;;;;;;15.20;12.32;;;;;;;17.92;41.53;100159.59;5015004;28;20053;-62
2024/01/16 03:43:01;;;;;;;12.55;11.20;;;;;;;17.91;41.57;100168.63;5016849;28;20472;-62
2024/01/16 03:45:29;;;;;;;14.13;12.30;;;;;;;17.92;41.69;100185.53;5015004;28;20500;-62
2024/01/16 03:47:56;;;;;;;11.93;10.75;;;;;;;17.91;41.78;100183.84;5015452;28;20412;-60
2024/01/16 03:50:24;;;;;;;12.90;11.60;;;;;;;17.90;41.73;100177.63;5014865;28;20412;-59
2024/01/16 03:52:51;;;;;;;14.15;12.65;;;;;;;17.90;41.60;100182.13;5016555;28;20038;-59
2024/01/16 03:55:19;;;;;;;12.82;11.50;;;;;;;17.90;41.80;100174.94;5014985;28;20046;-59
2024/01/16 03:57:46;;;;;;;12.85;11.50;;;;;;;17.89;41.59;100175.94;5015130;28;20061;-59
2024/01/16 04:00:14;;;;;;;12.77;11.48;;;;;;;17.89;41.70;100177.78;5020174;28;20061;-59
2024/01/16 04:02:41;;;;;;;12.82;11.50;;;;;;;17.88;41.75;100173.41;5015200;28;20045;-59
2024/01/16 04:05:09;;;;;;;12.82;11.25;;;;;;;17.87;41.60;100175.25;5014861;28;20046;-59
2024/01/16 04:07:36;;;;;;;13.23;11.82;;;;;;;17.87;41.61;100172.56;5014720;28;20046;-62
2024/01/16 04:10:05;;;;;;;12.93;11.73;;;;;;;17.87;41.71;100174.41;5014421;28;20386;-63
2024/01/16 04:12:32;;;;;;;12.48;10.60;;;;;;;17.87;41.95;100182.44;5016786;28;20050;-62
2024/01/16 04:14:59;;;;;;;13.23;11.93;;;;;;;17.86;41.62;100188.75;5016933;28;20042;-63
2024/01/16 04:17:27;;;;;;;13.27;11.85;;;;;;;17.87;41.82;100196.69;5016240;28;20057;-60
2024/01/16 04:19:54;;;;;;;12.88;11.68;;;;;;;17.86;41.81;100194.97;5014801;28;20077;-61
2024/01/16 04:22:21;;;;;;;13.07;11.68;;;;;;;17.85;41.69;100195.94;5016047;28;20042;-60
2024/01/16 04:24:49;;;;;;;12.82;11.50;;;;;;;17.85;41.65;100187.91;5014427;28;20052;-60
2024/01/16 04:27:16;;;;;;;12.85;11.50;;;;;;;17.86;41.72;100188.75;5015163;28;20053;-63
2024/01/16 04:29:43;;;;;;;13.43;11.65;;;;;;;17.85;41.55;100189.75;5027852;28;20072;-61
2024/01/16 04:32:11;;;;;;;12.93;11.63;;;;;;;17.84;41.63;100201.44;5019534;28;20046;-63
2024/01/16 04:34:38;;;;;;;12.85;11.50;;;;;;;17.82;41.68;100198.88;5014907;28;20042;-63
2024/01/16 04:37:06;;;;;;;13.13;11.32;;;;;;;17.83;41.69;100207.81;5018163;28;20050;-62
2024/01/16 04:39:33;;;;;;;12.25;11.05;;;;;;;17.83;41.38;100211.31;5017883;28;20050;-60
2024/01/16 04:42:00;;;;;;;12.23;10.95;;;;;;;17.82;41.53;100208.75;5020120;28;20488;-61
2024/01/16 04:44:28;;;;;;;13.45;11.93;;;;;;;17.82;41.63;100214.97;5019061;28;20103;-60
2024/01/16 04:46:56;;;;;;;11.43;10.32;;;;;;;17.82;41.54;100216.78;5020642;28;20042;-60
2024/01/16 04:49:23;;;;;;;12.55;10.40;;;;;;;17.82;41.64;100232.84;5033478;28;20038;-60
2024/01/16 04:51:51;;;;;;;12.10;10.80;;;;;;;17.81;41.75;100226.66;5022916;28;20050;-59
2024/01/16 04:54:18;;;;;;;11.68;10.48;;;;;;;17.80;41.68;100238.34;5020612;28;20049;-59
2024/01/16 04:56:46;;;;;;;11.95;10.60;;;;;;;17.79;41.49;100237.53;5020873;28;20415;-61
2024/01/16 04:59:15;;;;;;;12.63;11.32;;;;;;;17.78;41.40;100234.94;5020657;28;20072;-60
2024/01/16 05:01:43;;;;;;;12.68;11.35;;;;;;;17.79;41.36;100239.34;5024636;28;20046;-60
2024/01/16 05:04:10;;;;;;;13.02;11.65;;;;;;;17.79;41.53;100247.38;5018952;28;20412;-61
2024/01/16 05:06:38;;;;;;;13.38;11.82;;;;;;;17.79;41.50;100261.63;5018540;28;20089;-60
2024/01/16 05:09:06;;;;;;;12.60;11.30;;;;;;;17.77;41.27;100266.25;5018547;28;20116;-63
2024/01/16 05:11:34;;;;;;;11.70;10.50;;;;;;;17.76;41.27;100261.88;5020029;28;20053;-64
2024/01/16 05:14:01;;;;;;;12.30;11.10;;;;;;;17.75;41.33;100264.69;5018208;28;20042;-63
2024/01/16 05:16:29;;;;;;;12.60;11.40;;;;;;;17.75;41.25;100262.03;5018265;28;20050;-63
2024/01/16 05:18:56;;;;;;;12.00;10.75;;;;;;;17.74;41.21;100261.19;5019999;28;20045;-63
2024/01/16 05:21:24;;;;;;;13.20;11.80;;;;;;;17.75;41.27;100254.00;5019831;28;20500;-61
2024/01/16 05:23:51;;;;;;;12.38;11.07;;;;;;;17.73;41.19;100248.72;5018029;28;20408;-60
2024/01/16 05:26:18;;;;;;;14.45;11.73;;;;;;;17.72;41.29;100255.06;5017679;28;20049;-60
2024/01/16 05:28:46;;;;;;;12.23;10.98;;;;;;;17.72;41.32;100249.72;5017737;28;20050;-60
2024/01/16 05:31:13;;;;;;;11.65;10.45;;;;;;;17.73;41.48;100250.56;5020253;28;20110;-61
2024/01/16 05:33:41;;;;;;;13.13;11.63;;;;;;;17.73;41.32;100255.91;5017555;28;20042;-60
2024/01/16 05:36:08;;;;;;;12.13;10.57;;;;;;;17.72;41.42;100252.38;5017428;28;20488;-61
2024/01/16 05:38:37;;;;;;;11.82;10.65;;;;;;;17.71;41.44;100256.06;5017243;28;20400;-60
2024/01/16 05:41:05;;;;;;;12.27;11.02;;;;;;;17.71;41.29;100250.69;5019833;28;20046;-60
2024/01/16 05:43:32;;;;;;;12.05;10.77;;;;;;;17.72;41.27;100256.91;5017830;28;20045;-60
2024/01/16 05:46:00;;;;;;;12.63;11.32;;;;;;;17.70;41.36;100259.72;5020637;28;20050;-60
2024/01/16 05:48:28;;;;;;;11.10;10.02;;;;;;;17.72;41.56;100256.91;5020011;28;20046;-60
2024/01/16 05:50:55;;;;;;;12.82;10.30;;;;;;;17.72;41.48;100264.94;5019626;28;20404;-60
2024/01/16 05:53:23;;;;;;;12.35;11.10;;;;;;;17.72;41.55;100276.47;5020024;28;20057;-60
2024/01/16 05:55:50;;;;;;;11.27;10.07;;;;;;;17.72;41.55;100276.47;5017775;28;20045;-60
2024/01/16 05:58:17;;;;;;;11.70;10.50;;;;;;;17.72;41.34;100279.16;5020093;28;20053;-61
2024/01/16 06:00:45;;;;;;;11.63;10.48;;;;;;;17.72;41.46;100289.88;5019599;28;20050;-62
2024/01/16 06:03:12;;;;;;;12.77;11.02;;;;;;;17.71;41.27;100293.53;5017467;28;20046;-62
2024/01/16 06:05:40;;;;;;;11.85;10.52;;;;;;;17.72;41.12;100302.41;5018920;28;20415;-63
2024/01/16 06:08:07;;;;;;;13.25;11.85;;;;;;;17.71;41.15;100298.88;5017115;28;20476;-61
2024/01/16 06:10:35;;;;;;;12.35;11.02;;;;;;;17.71;41.19;100314.94;5019078;28;20049;-60
2024/01/16 06:13:02;;;;;;;13.05;11.32;;;;;;;17.71;40.93;100314.09;5017420;28;20500;-60
2024/01/16 06:15:30;;;;;;;11.93;9.90;;;;;;;17.70;41.01;100307.91;5019699;28;20052;-60
2024/01/16 06:17:57;;;;;;;11.63;9.68;;;;;;;17.70;40.99;100313.25;5019870;28;20523;-59
2024/01/16 06:20:25;;;;;;;12.70;10.18;;;;;;;17.70;40.87;100321.28;5021625;28;20038;-61
2024/01/16 06:22:53;;;;;;;12.60;11.25;;;;;;;17.69;40.92;100324.94;5028892;28;20102;-62
2024/01/16 06:25:20;;;;;;;11.55;10.35;;;;;;;17.70;40.99;100317.75;5017042;28;20053;-62
2024/01/16 06:27:47;;;;;;;11.70;10.50;;;;;;;17.69;40.91;100316.91;5018506;28;20053;-60
2024/01/16 06:30:15;;;;;;;11.38;9.98;;;;;;;17.69;40.78;100321.41;5019154;28;20061;-61
2024/01/16 06:32:42;;;;;;;12.05;10.18;;;;;;;17.69;40.71;100322.25;5016674;28;20411;-62
2024/01/16 06:35:13;;;;;;;11.27;9.77;;;;;;;17.68;40.65;100325.91;5017162;28;20492;-62
2024/01/16 06:37:41;;;;;;;11.45;10.30;;;;;;;17.67;40.69;100332.25;5028117;28;20052;-60
2024/01/16 06:40:09;;;;;;;11.10;9.90;;;;;;;17.65;40.62;100330.69;5016844;28;20140;-60
2024/01/16 06:42:36;;;;;;;10.80;9.65;;;;;;;17.65;40.75;100330.69;5017133;28;20067;-60
2024/01/16 06:45:05;;;;;;;11.32;10.15;;;;;;;17.64;40.66;100340.56;5017314;28;20041;-60
2024/01/16 06:47:32;;;;;;;10.25;9.23;;;;;;;17.63;40.81;100344.22;5017395;28;20050;-60
2024/01/16 06:50:00;;;;;;;11.85;10.65;;;;;;;17.63;40.64;100348.72;5019597;28;20408;-60
2024/01/16 06:52:27;;;;;;;11.90;10.48;;;;;;;17.63;40.63;100346.91;5017333;28;20058;-60
2024/01/16 06:54:54;;;;;;;10.55;9.48;;;;;;;17.64;40.67;100339.72;5016765;28;20045;-60
2024/01/16 06:57:22;;;;;;;10.90;9.80;;;;;;;17.63;40.53;100328.16;5017106;28;20049;-61
2024/01/16 06:59:49;;;;;;;12.48;10.27;;;;;;;17.63;40.62;100338.88;5020044;28;20068;-62
2024/01/16 07:02:17;;;;;;;10.48;9.38;;;;;;;17.64;40.34;100345.91;5016121;28;20053;-60
2024/01/16 07:04:44;;;;;;;11.38;10.23;;;;;;;17.64;40.63;100359.28;5016935;28;20069;-58
2024/01/16 07:07:11;;;;;;;11.80;10.35;;;;;;;17.65;40.53;100373.53;5016304;28;20049;-59
2024/01/16 07:09:39;;;;;;;11.13;10.02;;;;;;;17.66;40.56;100364.50;5019359;28;20064;-61
2024/01/16 07:12:06;;;;;;;10.57;9.55;;;;;;;17.65;40.72;100366.34;5015283;28;20049;-59
2024/01/16 07:14:34;;;;;;;10.57;9.38;;;;;;;17.65;40.62;100366.34;5016579;28;20061;-59
2024/01/16 07:17:01;;;;;;;11.77;9.35;;;;;;;17.64;40.68;100372.66;5016766;28;20050;-63
2024/01/16 07:19:28;;;;;;;10.30;9.23;;;;;;;17.65;40.71;100379.72;5018921;28;20535;-61
2024/01/16 07:21:56;;;;;;;11.52;10.18;;;;;;;17.65;40.78;100385.06;5016524;28;20050;-60
2024/01/16 07:24:23;;;;;;;10.48;9.25;;;;;;;17.65;41.00;100395.78;5016344;28;20068;-62
2024/01/16 07:26:50;;;;;;;12.50;10.07;;;;;;;17.64;40.61;100396.75;5016420;28;20061;-60
2024/01/16 07:29:18;;;;;;;10.25;9.25;;;;;;;17.64;40.96;100404.78;5019096;28;20365;-62
2024/01/16 07:31:46;;;;;;;11.05;9.70;;;;;;;17.65;40.78;100408.31;5016512;28;20052;-60
2024/01/16 07:34:19;;;;;;;9.77;8.77;;;;;;;17.63;41.13;100408.47;5015865;28;20046;-61
2024/01/16 07:36:47;;;;;;;12.13;9.95;;;;;;;17.63;41.08;100408.47;5022105;28;20052;-63
2024/01/16 07:39:14;;;;;;;10.70;9.63;;;;;;;17.63;41.00;100419.16;5021406;28;20045;-61
2024/01/16 07:41:42;;;;;;;10.70;9.60;;;;;;;17.62;41.08;100420.13;5025645;28;20388;-61
2024/01/16 07:44:09;;;;;;;11.13;10.02;;;;;;;17.61;41.03;100415.75;5038147;28;20486;-59
2024/01/16 07:46:37;;;;;;;11.80;10.60;;;;;;;17.61;41.13;100418.44;5023357;28;20077;-61
2024/01/16 07:49:05;;;;;;;10.90;9.73;;;;;;;17.59;41.22;100431.13;5022876;28;20049;-61
2024/01/16 07:51:33;;;;;;;13.02;9.82;;;;;;;17.57;41.11;100434.88;5020738;28;20049;-61
2024/01/16 07:54:08;;;;;;;10.57;8.98;;;;;;;17.56;41.11;100428.69;5018795;28;20053;-61
2024/01/16 07:56:36;;;;;;;10.13;9.02;;;;;;;17.55;41.13;100435.88;5019908;28;20042;-61
2024/01/16 07:59:03;;;;;;;10.68;9.40;;;;;;;17.55;41.14;100443.91;5022626;28;20042;-61
2024/01/16 08:01:32;;;;;;;11.30;10.15;;;;;;;17.55;41.19;100446.59;5019366;28;20381;-60
2024/01/16 08:03:59;;;;;;;11.27;9.30;;;;;;;17.55;41.21;100457.28;5018768;28;20049;-61
2024/01/16 08:06:30;;;;;;;11.73;10.52;;;;;;;17.53;41.17;100455.72;5019850;28;20058;-61
2024/01/16 08:08:57;;;;;;;11.18;10.07;;;;;;;17.52;41.17;100454.00;5022871;28;20053;-63
2024/01/16 08:11:39;;;;;;;11.57;10.27;;;;;;;17.54;41.26;100446.69;5023823;28;20452;-63
2024/01/16 08:14:13;;;;;;;11.15;10.05;;;;;;;17.55;41.19;100453.75;5017590;28;20042;-62
2024/01/16 08:16:44;;;;;;;9.90;8.90;;;;;;;17.58;41.32;100469.53;5022459;28;20056;-60
2024/01/16 08:19:11;;;;;;;10.95;9.80;;;;;;;17.60;41.59;100467.59;5018729;28;20125;-63
2024/01/16 08:21:39;;;;;;;13.55;11.20;;;;;;;17.59;41.74;100459.72;5017122;28;20053;-63
2024/01/16 08:24:06;;;;;;;11.60;9.73;;;;;;;17.60;41.74;100472.97;5019108;28;20038;-63
2024/01/16 08:26:34;;;;;;;12.25;10.35;;;;;;;17.61;41.74;100463.09;5021987;28;20114;-63
2024/01/16 08:29:01;;;;;;;11.38;10.23;;;;;;;17.61;41.50;100474.66;5019853;28;20053;-64
2024/01/16 08:31:29;;;;;;;12.38;10.18;;;;;;;17.62;41.64;100480.84;5018153;28;20061;-63
2024/01/16 08:33:57;;;;;;;11.80;10.57;;;;;;;17.63;41.46;100485.25;5019049;28;20519;-63
2024/01/16 08:36:25;;;;;;;12.50;10.20;;;;;;;17.62;41.39;100484.38;5022085;28;20076;-63
2024/01/16 08:38:52;;;;;;;11.95;10.52;;;;;;;17.63;41.46;100483.41;5018973;28;20072;-62
2024/01/16 08:41:20;;;;;;;12.23;10.02;;;;;;;17.63;41.40;100496.78;5017277;28;20401;-63
2024/01/16 08:43:47;;;;;;;11.30;10.23;;;;;;;17.64;41.32;100487.78;5018941;28;20057;-63
2024/01/16 08:46:15;;;;;;;10.88;9.80;;;;;;;17.64;41.39;100487.78;5022088;28;20407;-63
2024/01/16 08:48:42;;;;;;;11.55;9.57;;;;;;;17.65;41.44;100504.69;5019287;28;20045;-62
2024/01/16 08:51:14;;;;;;;10.40;9.15;;;;;;;17.66;41.30;100501.03;5018126;28;20056;-64
2024/01/16 08:53:42;;;;;;;11.40;10.20;;;;;;;17.63;41.46;100504.81;5019259;28;20065;-63
2024/01/16 08:56:12;;;;;;;10.77;9.68;;;;;;;17.65;41.28;100507.38;5030425;28;20049;-63
2024/01/16 08:58:40;;;;;;;11.70;9.50;;;;;;;17.64;41.41;100516.38;5018369;28;20104;-63
2024/01/16 09:01:08;;;;;;;12.30;10.18;;;;;;;17.64;41.29;100519.06;5018434;28;20049;-63
2024/01/16 09:03:36;;;;;;;10.85;9.75;;;;;;;17.64;41.22;100516.38;5019640;28;20054;-63
2024/01/16 09:06:03;;;;;;;11.75;9.80;;;;;;;17.63;41.38;100512.84;5018018;28;20053;-63
2024/01/16 09:08:31;;;;;;;11.13;10.02;;;;;;;17.61;41.32;100509.44;5017837;28;20054;-63
2024/01/16 09:11:00;;;;;;;12.32;10.52;;;;;;;17.61;41.26;100511.28;5022550;28;20050;-63
2024/01/16 09:13:27;;;;;;;17.10;15.35;;;;;;;17.55;40.59;100508.13;5019944;28;20497;-63
2024/01/16 09:15:54;;;;;;;19.85;17.77;;;;;;;17.51;39.50;100521.91;5021682;28;20046;-63
2024/01/16 09:18:22;;;;;;;21.65;19.45;;;;;;;17.45;38.82;100509.88;5017709;28;20053;-60
2024/01/16 09:20:50;;;;;;;22.58;19.85;;;;;;;17.39;38.64;100504.19;5017832;28;20057;-60
2024/01/16 09:23:17;;;;;;;18.80;16.60;;;;;;;17.35;39.07;100506.28;5019820;28;20053;-60
2024/01/16 09:25:45;;;;;;;18.52;16.55;;;;;;;17.34;39.46;100507.25;5024401;28;20474;-60
2024/01/16 09:28:15;;;;;;;16.88;15.07;;;;;;;17.34;39.67;100511.72;5021542;28;20502;-63
2024/01/16 09:30:42;;;;;;;15.30;13.35;;;;;;;17.35;39.84;100514.31;5021809;28;20389;-62
2024/01/16 09:33:10;;;;;;;14.75;13.15;;;;;;;17.37;39.93;100511.47;5023780;28;20408;-63
2024/01/16 09:35:38;;;;;;;15.82;13.90;;;;;;;17.38;40.02;100523.88;5023951;28;20412;-62
2024/01/16 09:38:05;;;;;;;15.10;13.52;;;;;;;17.38;39.99;100521.19;5021550;28;20080;-62
2024/01/16 09:40:35;;;;;;;14.85;13.30;;;;;;;17.40;40.08;100516.59;5021196;28;20416;-62
2024/01/16 09:43:04;;;;;;;14.43;12.80;;;;;;;17.42;40.10;100528.88;5023820;28;20054;-62
2024/01/16 09:45:33;;;;;;;14.35;12.95;;;;;;;17.41;40.14;100535.19;5023326;28;20048;-63
2024/01/16 09:48:02;;;;;;;14.05;12.75;;;;;;;17.44;40.06;100536.75;5019919;28;20058;-60
2024/01/16 09:50:30;;;;;;;15.25;13.45;;;;;;;17.44;40.11;100534.94;5021589;28;20057;-60
2024/01/16 09:52:58;;;;;;;15.82;12.63;;;;;;;17.42;40.17;100539.59;5028685;28;20507;-61
2024/01/16 09:55:26;;;;;;;14.10;12.15;;;;;;;17.43;40.15;100535.06;5022393;28;20046;-61
2024/01/16 09:57:56;;;;;;;13.18;11.80;;;;;;;17.42;40.20;100530.69;5019581;28;20058;-61
2024/01/16 10:00:30;;;;;;;13.27;11.85;;;;;;;17.44;40.29;100520.72;5019724;28;20069;-63
2024/01/16 10:02:59;;;;;;;15.77;12.17;;;;;;;17.44;40.40;100520.72;5030612;28;20049;-63
2024/01/16 10:05:27;;;;;;;13.48;12.00;;;;;;;17.45;40.52;100519.72;5021105;28;20042;-63
2024/01/16 10:07:54;;;;;;;13.00;11.75;;;;;;;17.46;40.71;100513.38;5021042;28;20045;-60
2024/01/16 10:10:28;;;;;;;13.88;11.43;;;;;;;17.45;40.70;100520.56;5028318;28;20052;-59
2024/01/16 10:13:14;;;;;;;13.10;11.68;;;;;;;17.44;40.62;100518.03;5020627;28;20045;-58
2024/01/16 10:15:42;;;;;;;13.73;11.98;;;;;;;17.44;40.52;100518.03;5020946;28;20042;-58
2024/01/16 10:18:33;;;;;;;12.40;11.10;;;;;;;17.44;40.63;100520.72;5020991;28;20045;-61
2024/01/16 10:21:01;;;;;;;13.68;11.60;;;;;;;17.43;40.64;100516.34;5022063;28;20054;-62
2024/01/16 10:23:30;;;;;;;12.98;11.68;;;;;;;17.44;40.75;100516.22;5025765;28;20046;-62
2024/01/16 10:26:07;;;;;;;12.40;10.88;;;;;;;17.44;40.72;100512.69;5020449;28;20038;-63
2024/01/16 10:28:42;;;;;;;12.45;11.20;;;;;;;17.44;40.78;100518.03;5019813;28;20060;-63
2024/01/16 10:31:12;;;;;;;12.20;10.90;;;;;;;17.43;40.84;100522.53;5020351;28;20054;-63
2024/01/16 10:33:40;;;;;;;12.02;10.75;;;;;;;17.43;40.74;100527.06;5020113;28;20045;-63
2024/01/16 10:36:16;;;;;;;12.85;11.52;;;;;;;17.44;40.84;100531.41;5021470;28;20038;-63
2024/01/16 10:38:51;;;;;;;12.18;10.95;;;;;;;17.44;40.67;100542.13;5021972;28;20072;-63
2024/01/16 10:41:24;;;;;;;13.18;11.52;;;;;;;17.45;40.70;100538.47;5020147;28;20105;-63
2024/01/16 10:44:08;;;;;;;11.95;10.75;;;;;;;17.43;40.73;100522.53;5021629;28;20050;-63
2024/01/16 10:46:39;;;;;;;14.85;11.73;;;;;;;17.46;40.87;100526.78;5021637;28;20052;-63
2024/01/16 10:49:06;;;;;;;12.27;11.07;;;;;;;17.45;40.73;100536.63;5020136;28;20381;-60
2024/01/16 10:51:35;;;;;;;12.43;11.13;;;;;;;17.45;40.84;100530.44;5019699;28;20518;-60
2024/01/16 10:54:08;;;;;;;11.82;10.73;;;;;;;17.45;40.81;100530.44;5023673;28;20046;-60
2024/01/16 10:56:38;;;;;;;13.73;12.23;;;;;;;17.46;40.80;100542.81;5019693;28;20037;-62
2024/01/16 10:59:14;;;;;;;12.13;10.63;;;;;;;17.45;40.91;100541.13;5018593;28;20069;-63
2024/01/16 11:01:47;;;;;;;12.25;10.90;;;;;;;17.45;40.89;100543.81;5022748;28;20049;-63
2024/01/16 11:04:15;;;;;;;12.52;11.18;;;;;;;17.45;40.81;100541.13;5022077;28;20069;-63
2024/01/16 11:06:44;;;;;;;11.95;10.80;;;;;;;17.45;40.91;100541.97;5019922;28;20050;-61
2024/01/16 11:09:16;;;;;;;12.25;10.98;;;;;;;17.46;40.89;100550.84;5019315;28;20058;-63
2024/01/16 11:11:56;;;;;;;11.75;10.65;;;;;;;17.46;40.93;100545.50;5018470;28;20076;-65
2024/01/16 11:14:25;;;;;;;11.30;9.93;;;;;;;17.46;40.95;100535.69;5019385;28;20050;-63
2024/01/16 11:16:54;;;;;;;11.07;9.98;;;;;;;17.46;41.02;100534.81;5019346;28;20046;-60